createdAt,value
2018-12-23T15:02:34.138Z,1011.28
2018-12-23T15:03:34.067Z,1011.25
2018-12-23T15:04:34.119Z,1011.27
2018-12-23T15:05:34.180Z,1011.31
2018-12-23T15:06:34.235Z,1011.30
2018-12-23T15:07:34.294Z,1011.31
2018-12-23T15:08:34.351Z,1011.27
2018-12-23T15:09:34.697Z,1011.26
2018-12-23T15:10:34.459Z,1011.19
2018-12-23T15:11:34.515Z,1011.22
2018-12-23T15:12:34.583Z,1011.15
2018-12-23T15:13:34.979Z,1011.11
2018-12-23T15:14:34.695Z,1011.12
2018-12-23T15:15:34.751Z,1011.08
2018-12-23T15:16:34.811Z,1011.06
2018-12-23T15:17:34.879Z,1010.98
2018-12-23T15:18:34.939Z,1010.96
2018-12-23T15:19:34.991Z,1010.93
2018-12-23T15:20:35.055Z,1010.83
2018-12-23T15:21:35.119Z,1010.83
2018-12-23T15:22:35.179Z,1010.78
2018-12-23T15:23:35.332Z,1010.75
2018-12-23T15:24:35.297Z,1010.75
2018-12-23T15:25:35.357Z,1010.74
2018-12-23T15:26:35.420Z,1010.74
2018-12-23T15:27:35.480Z,1010.82
2018-12-23T15:28:35.548Z,1010.82
2018-12-23T15:29:35.610Z,1010.84
2018-12-23T15:30:35.667Z,1010.86
2018-12-23T15:31:35.728Z,1010.90
2018-12-23T15:32:35.787Z,1010.88
2018-12-23T15:33:35.852Z,1010.88
2018-12-23T15:34:35.916Z,1010.83
2018-12-23T15:35:35.969Z,1010.82
2018-12-23T15:36:36.032Z,1010.80
2018-12-23T15:37:36.092Z,1010.77
2018-12-23T15:38:36.193Z,1010.76
2018-12-23T15:39:42.551Z,1010.75
2018-12-23T15:40:36.276Z,1010.77
2018-12-23T15:41:36.336Z,1010.77
2018-12-23T15:42:36.396Z,1010.77
2018-12-23T15:43:36.465Z,1010.82
2018-12-23T15:44:36.529Z,1010.72
2018-12-23T15:45:36.581Z,1010.70
2018-12-23T15:46:36.645Z,1010.66
2018-12-23T15:47:36.704Z,1010.70
2018-12-23T15:48:36.773Z,1010.75
2018-12-23T15:49:36.836Z,1010.77
2018-12-23T15:50:36.889Z,1010.80
2018-12-23T15:51:36.953Z,1010.87
2018-12-23T15:52:37.013Z,1010.87
2018-12-23T15:53:37.161Z,1010.85
2018-12-23T15:54:37.137Z,1010.80
2018-12-23T15:55:37.197Z,1010.73
2018-12-23T15:56:37.257Z,1010.64
2018-12-23T15:57:37.321Z,1010.55
2018-12-23T15:58:37.389Z,1010.48
2018-12-23T15:59:37.450Z,1010.48
2018-12-23T16:00:37.505Z,1010.50
2018-12-23T16:01:37.565Z,1010.47
2018-12-23T16:02:37.630Z,1010.47
2018-12-23T16:03:37.697Z,1010.50
2018-12-23T16:04:37.757Z,1010.50
2018-12-23T16:05:37.814Z,1010.46
2018-12-23T16:06:37.874Z,1010.40
2018-12-23T16:07:37.938Z,1010.32
2018-12-23T16:08:38.006Z,1010.28
2018-12-23T16:09:38.070Z,1010.20
2018-12-23T16:10:38.122Z,1010.17
2018-12-23T16:11:38.181Z,1010.06
2018-12-23T16:12:38.246Z,1010.04
2018-12-23T16:13:38.307Z,1009.98
2018-12-23T16:14:38.406Z,1009.98
2018-12-23T16:15:38.430Z,1009.97
2018-12-23T16:16:38.490Z,1009.99
2018-12-23T16:17:38.554Z,1010.03
2018-12-23T16:18:38.614Z,1010.06
2018-12-23T16:19:38.682Z,1010.07
2018-12-23T16:20:38.751Z,1010.05
2018-12-23T16:21:38.798Z,1010.04
2018-12-23T16:22:38.867Z,1010.05
2018-12-23T16:23:38.928Z,1010.12
2018-12-23T16:24:38.990Z,1010.15
2018-12-23T16:25:39.056Z,1010.14
2018-12-23T16:26:39.107Z,1010.16
2018-12-23T16:27:39.166Z,1010.13
2018-12-23T16:28:39.230Z,1010.10
2018-12-23T16:29:39.291Z,1010.07
2018-12-23T16:30:39.451Z,1010.05
2018-12-23T16:31:39.414Z,1010.07
2018-12-23T16:32:39.475Z,1010.03
2018-12-23T16:33:39.539Z,1009.99
2018-12-23T16:34:39.599Z,1010.01
2018-12-23T16:35:39.667Z,1009.92
2018-12-23T16:36:39.731Z,1009.93
2018-12-23T16:37:39.794Z,1009.88
2018-12-23T16:38:39.847Z,1009.87
2018-12-23T16:39:39.921Z,1009.82
2018-12-23T16:40:39.979Z,1009.85
2018-12-23T16:41:40.039Z,1009.83
2018-12-23T16:42:40.091Z,1009.81
2018-12-23T16:43:40.155Z,1009.78
2018-12-23T16:44:40.215Z,1009.75
2018-12-23T16:45:40.391Z,1009.71
2018-12-23T16:46:40.339Z,1009.69
2018-12-23T16:47:40.407Z,1009.71
2018-12-23T16:48:40.466Z,1009.65
2018-12-23T16:49:40.962Z,1009.69
2018-12-23T16:50:40.592Z,1009.67
2018-12-23T16:51:40.652Z,1009.70
2018-12-23T16:52:40.708Z,1009.67
2018-12-23T16:53:40.792Z,1009.62
2018-12-23T16:54:40.852Z,1009.62
2018-12-23T16:55:40.902Z,1009.60
2018-12-23T16:56:40.963Z,1009.62
2018-12-23T16:57:41.016Z,1009.60
2018-12-23T16:58:41.076Z,1009.60
2018-12-23T16:59:41.140Z,1009.57
2018-12-23T17:00:41.308Z,1009.54
2018-12-23T17:01:41.260Z,1009.51
2018-12-23T17:02:41.324Z,1009.58
2018-12-23T17:03:41.385Z,1009.60
2018-12-23T17:04:41.456Z,1009.54
2018-12-23T17:05:41.516Z,1009.55
2018-12-23T17:06:41.577Z,1009.51
2018-12-23T17:07:41.634Z,1009.46
2018-12-23T17:08:41.692Z,1009.52
2018-12-23T17:09:41.757Z,1009.54
2018-12-23T17:10:41.825Z,1009.54
2018-12-23T17:11:41.889Z,1009.54
2018-12-23T17:12:41.941Z,1009.55
2018-12-23T17:13:42.001Z,1009.59
2018-12-23T17:14:42.065Z,1009.62
2018-12-23T17:15:42.193Z,1009.56
2018-12-23T17:16:42.185Z,1009.52
2018-12-23T17:17:42.249Z,1009.49
2018-12-23T17:18:42.309Z,1009.46
2018-12-23T17:19:42.372Z,1009.42
2018-12-23T17:20:42.441Z,1009.41
2018-12-23T17:21:42.501Z,1009.34
2018-12-23T17:22:42.561Z,1009.26
2018-12-23T17:23:42.617Z,1009.21
2018-12-23T17:24:42.686Z,1009.17
2018-12-23T17:25:42.750Z,1009.18
2018-12-23T17:26:42.810Z,1009.19
2018-12-23T17:27:42.866Z,1009.18
2018-12-23T17:28:42.926Z,1009.25
2018-12-23T17:29:42.990Z,1009.26
2018-12-23T17:30:43.057Z,1009.24
2018-12-23T17:31:43.120Z,1009.30
2018-12-23T17:32:43.178Z,1009.27
2018-12-23T17:33:43.236Z,1009.35
2018-12-23T17:34:43.298Z,1009.37
2018-12-23T17:35:43.366Z,1009.38
2018-12-23T17:36:43.426Z,1009.36
2018-12-23T17:37:43.485Z,1009.32
2018-12-23T17:38:43.542Z,1009.35
2018-12-23T17:39:43.602Z,1009.36
2018-12-23T17:40:43.674Z,1009.28
2018-12-23T17:41:43.734Z,1009.22
2018-12-23T17:42:43.790Z,1009.27
2018-12-23T17:43:43.853Z,1009.25
2018-12-23T17:44:43.910Z,1009.15
2018-12-23T17:45:43.992Z,1009.14
2018-12-23T17:46:44.042Z,1009.18
2018-12-23T17:47:44.098Z,1009.16
2018-12-23T17:48:44.159Z,1009.14
2018-12-23T17:49:44.218Z,1009.20
2018-12-23T17:50:44.378Z,1009.20
2018-12-23T17:51:44.343Z,1009.19
2018-12-23T17:52:44.408Z,1009.18
2018-12-23T17:53:44.469Z,1009.16
2018-12-23T17:54:44.531Z,1009.15
2018-12-23T17:55:45.879Z,1009.14
2018-12-23T17:56:44.887Z,1009.12
2018-12-23T17:57:44.715Z,1009.07
2018-12-23T17:58:44.775Z,1009.02
2018-12-23T17:59:44.836Z,1008.99
2018-12-23T18:00:44.911Z,1008.97
2018-12-23T18:01:44.967Z,1008.98
2018-12-23T18:02:45.024Z,1009.06
2018-12-23T18:03:45.084Z,1009.03
2018-12-23T18:04:45.144Z,1009.05
2018-12-23T18:05:45.382Z,1009.07
2018-12-23T18:06:45.268Z,1009.05
2018-12-23T18:07:45.328Z,1009.03
2018-12-23T18:08:45.392Z,1009.03
2018-12-23T18:09:45.452Z,1009.04
2018-12-23T18:10:45.524Z,1009.03
2018-12-23T18:11:45.584Z,1009.03
2018-12-23T18:12:45.640Z,1009.01
2018-12-23T18:13:45.701Z,1008.99
2018-12-23T18:14:45.760Z,1008.95
2018-12-23T18:15:45.918Z,1008.91
2018-12-23T18:16:46.029Z,1008.92
2018-12-23T18:17:45.948Z,1008.98
2018-12-23T18:18:46.010Z,1008.97
2018-12-23T18:19:46.068Z,1009.00
2018-12-23T18:20:46.285Z,1008.95
2018-12-23T18:21:46.193Z,1009.00
2018-12-23T18:22:46.257Z,1008.97
2018-12-23T18:23:46.316Z,1008.90
2018-12-23T18:24:46.383Z,1008.95
2018-12-23T18:25:46.449Z,1008.94
2018-12-23T18:26:46.513Z,1008.96
2018-12-23T18:27:46.565Z,1008.95
2018-12-23T18:28:46.629Z,1008.97
2018-12-23T18:29:46.691Z,1008.99
2018-12-23T18:30:46.757Z,1009.01
2018-12-23T18:31:46.817Z,1009.04
2018-12-23T18:32:46.874Z,1009.05
2018-12-23T18:33:46.933Z,1009.01
2018-12-23T18:34:46.998Z,1009.01
2018-12-23T18:35:47.065Z,1008.99
2018-12-23T18:36:47.129Z,1009.02
2018-12-23T18:37:47.181Z,1009.01
2018-12-23T18:38:47.246Z,1008.94
2018-12-23T18:39:47.310Z,1008.94
2018-12-23T18:40:47.374Z,1008.97
2018-12-23T18:41:47.438Z,1008.93
2018-12-23T18:42:47.490Z,1008.95
2018-12-23T18:43:47.554Z,1008.92
2018-12-23T18:44:47.614Z,1008.90
2018-12-23T18:45:47.686Z,1008.89
2018-12-23T18:46:47.748Z,1008.89
2018-12-23T18:47:47.909Z,1008.91
2018-12-23T18:48:47.862Z,1008.91
2018-12-23T18:49:47.926Z,1008.88
2018-12-23T18:50:47.995Z,1008.94
2018-12-23T18:51:48.058Z,1008.92
2018-12-23T18:52:48.110Z,1008.90
2018-12-23T18:53:48.176Z,1008.93
2018-12-23T18:54:48.235Z,1008.88
2018-12-23T18:55:48.407Z,1008.91
2018-12-23T18:56:48.358Z,1008.93
2018-12-23T18:57:48.419Z,1008.91
2018-12-23T18:58:48.483Z,1008.89
2018-12-23T18:59:48.545Z,1008.87
2018-12-23T19:00:48.611Z,1008.86
2018-12-23T19:01:48.679Z,1008.87
2018-12-23T19:02:48.731Z,1008.89
2018-12-23T19:03:48.791Z,1008.88
2018-12-23T19:04:48.855Z,1008.84
2018-12-23T19:05:48.923Z,1008.82
2018-12-23T19:06:48.984Z,1008.84
2018-12-23T19:07:49.039Z,1008.87
2018-12-23T19:08:49.100Z,1008.87
2018-12-23T19:09:49.164Z,1008.92
2018-12-23T19:10:49.359Z,1008.90
2018-12-23T19:11:49.295Z,1008.91
2018-12-23T19:12:49.348Z,1008.89
2018-12-23T19:13:49.414Z,1008.89
2018-12-23T19:14:49.471Z,1008.86
2018-12-23T19:15:49.543Z,1008.87
2018-12-23T19:16:49.603Z,1008.79
2018-12-23T19:17:49.664Z,1008.79
2018-12-23T19:18:49.720Z,1008.87
2018-12-23T19:19:49.784Z,1008.89
2018-12-23T19:20:49.852Z,1008.89
2018-12-23T19:21:49.916Z,1008.85
2018-12-23T19:22:49.968Z,1008.84
2018-12-23T19:23:50.032Z,1008.81
2018-12-23T19:24:50.092Z,1008.82
2018-12-23T19:25:50.228Z,1008.84
2018-12-23T19:26:50.216Z,1008.85
2018-12-23T19:27:50.280Z,1008.86
2018-12-23T19:28:50.340Z,1008.86
2018-12-23T19:29:50.409Z,1008.83
2018-12-23T19:30:50.474Z,1008.82
2018-12-23T19:31:50.533Z,1008.81
2018-12-23T19:32:50.589Z,1008.77
2018-12-23T19:33:50.652Z,1008.76
2018-12-23T19:34:50.713Z,1008.81
2018-12-23T19:35:50.786Z,1008.75
2018-12-23T19:36:50.846Z,1008.84
2018-12-23T19:37:50.905Z,1008.83
2018-12-23T19:38:50.960Z,1008.89
2018-12-23T19:39:51.028Z,1008.87
2018-12-23T19:40:51.181Z,1008.88
2018-12-23T19:41:51.150Z,1008.82
2018-12-23T19:42:51.209Z,1008.85
2018-12-23T19:43:51.269Z,1008.81
2018-12-23T19:44:51.333Z,1008.81
2018-12-23T19:45:51.415Z,1008.85
2018-12-23T19:46:51.467Z,1008.79
2018-12-23T19:47:51.521Z,1008.77
2018-12-23T19:48:51.581Z,1008.75
2018-12-23T19:49:51.918Z,1008.72
2018-12-23T19:50:51.713Z,1008.73
2018-12-23T19:51:51.773Z,1008.76
2018-12-23T19:52:51.829Z,1008.73
2018-12-23T19:53:51.893Z,1008.80
2018-12-23T19:54:51.953Z,1008.73
2018-12-23T19:55:52.021Z,1008.75
2018-12-23T19:56:52.085Z,1008.80
2018-12-23T19:57:52.141Z,1008.75
2018-12-23T19:58:52.201Z,1008.76
2018-12-23T19:59:52.265Z,1008.74
2018-12-23T20:00:52.333Z,1008.77
2018-12-23T20:01:52.394Z,1008.79
2018-12-23T20:02:52.452Z,1008.78
2018-12-23T20:03:52.514Z,1008.83
2018-12-23T20:04:52.613Z,1008.74
2018-12-23T20:05:52.646Z,1008.76
2018-12-23T20:06:52.706Z,1008.75
2018-12-23T20:07:52.762Z,1008.75
2018-12-23T20:08:52.823Z,1008.79
2018-12-23T20:09:52.888Z,1008.81
2018-12-23T20:10:59.025Z,1008.80
2018-12-23T20:11:53.021Z,1008.82
2018-12-23T20:12:53.070Z,1008.82
2018-12-23T20:13:53.136Z,1008.86
2018-12-23T20:14:53.198Z,1008.82
2018-12-23T20:15:53.590Z,1008.88
2018-12-23T20:16:53.318Z,1008.93
2018-12-23T20:17:53.382Z,1008.88
2018-12-23T20:18:53.448Z,1008.90
2018-12-23T20:19:53.507Z,1008.85
2018-12-23T20:20:53.567Z,1008.88
2018-12-23T20:21:53.655Z,1008.92
2018-12-23T20:22:53.691Z,1008.93
2018-12-23T20:23:53.755Z,1008.89
2018-12-23T20:24:53.815Z,1009.00
2018-12-23T20:25:53.879Z,1009.04
2018-12-23T20:26:53.953Z,1009.03
2018-12-23T20:27:54.015Z,1009.05
2018-12-23T20:28:54.068Z,1009.02
2018-12-23T20:29:54.126Z,1008.97
2018-12-23T20:30:54.187Z,1009.01
2018-12-23T20:31:54.493Z,1008.98
2018-12-23T20:32:54.315Z,1008.94
2018-12-23T20:33:54.376Z,1008.98
2018-12-23T20:34:54.435Z,1009.05
2018-12-23T20:35:54.496Z,1009.07
2018-12-23T20:36:54.567Z,1009.05
2018-12-23T20:37:54.630Z,1009.03
2018-12-23T20:38:54.680Z,1009.06
2018-12-23T20:39:54.743Z,1009.11
2018-12-23T20:40:54.803Z,1009.01
2018-12-23T20:41:54.872Z,1009.02
2018-12-23T20:42:54.935Z,1009.04
2018-12-23T20:43:55.002Z,1009.09
2018-12-23T20:44:55.052Z,1009.08
2018-12-23T20:45:55.112Z,1009.15
2018-12-23T20:46:55.200Z,1009.13
2018-12-23T20:47:55.236Z,1009.13
2018-12-23T20:48:55.296Z,1009.12
2018-12-23T20:49:55.360Z,1009.10
2018-12-23T20:50:55.421Z,1009.18
2018-12-23T20:51:55.489Z,1009.16
2018-12-23T20:52:55.552Z,1009.06
2018-12-23T20:53:55.610Z,1009.03
2018-12-23T20:54:55.668Z,1009.18
2018-12-23T20:55:55.728Z,1009.42
2018-12-23T20:56:55.801Z,1009.30
2018-12-23T20:57:55.860Z,1009.17
2018-12-23T20:58:55.916Z,1009.16
2018-12-23T20:59:55.978Z,1009.21
2018-12-23T21:00:56.036Z,1009.20
2018-12-23T21:01:56.196Z,1009.26
2018-12-23T21:02:56.162Z,1009.27
2018-12-23T21:03:56.222Z,1009.28
2018-12-23T21:04:56.284Z,1009.30
2018-12-23T21:05:56.349Z,1009.37
2018-12-23T21:06:56.418Z,1009.36
2018-12-23T21:07:56.477Z,1009.42
2018-12-23T21:08:56.529Z,1009.43
2018-12-23T21:09:56.596Z,1009.51
2018-12-23T21:10:56.653Z,1009.50
2018-12-23T21:11:56.725Z,1009.58
2018-12-23T21:12:56.784Z,1009.59
2018-12-23T21:13:56.836Z,1009.54
2018-12-23T21:14:56.901Z,1009.62
2018-12-23T21:15:56.961Z,1009.60
2018-12-23T21:16:57.029Z,1009.68
2018-12-23T21:17:57.093Z,1009.69
2018-12-23T21:18:57.145Z,1009.76
2018-12-23T21:19:57.205Z,1009.80
2018-12-23T21:20:57.266Z,1009.88
2018-12-23T21:21:57.337Z,1009.86
2018-12-23T21:22:57.397Z,1009.87
2018-12-23T21:23:57.454Z,1009.87
2018-12-23T21:24:57.513Z,1009.86
2018-12-23T21:25:57.574Z,1009.85
2018-12-23T21:26:57.641Z,1009.85
2018-12-23T21:27:57.701Z,1009.77
2018-12-23T21:28:57.757Z,1009.78
2018-12-23T21:29:57.817Z,1009.78
2018-12-23T21:30:57.880Z,1009.86
2018-12-23T21:31:57.949Z,1009.75
2018-12-23T21:32:58.010Z,1009.70
2018-12-23T21:33:58.061Z,1009.67
2018-12-23T21:34:58.130Z,1009.72
2018-12-23T21:35:58.186Z,1009.76
2018-12-23T21:36:58.246Z,1009.84
2018-12-23T21:37:58.322Z,1009.84
2018-12-23T21:38:58.371Z,1009.88
2018-12-23T21:39:58.430Z,1009.92
2018-12-23T21:40:58.505Z,1009.84
2018-12-23T21:41:58.550Z,1009.93
2018-12-23T21:42:58.622Z,1009.89
2018-12-23T21:43:58.678Z,1009.85
2018-12-23T21:44:58.738Z,1009.86
2018-12-23T21:45:58.794Z,1009.88
2018-12-23T21:46:58.855Z,1009.99
2018-12-23T21:47:58.922Z,1009.97
2018-12-23T21:48:58.982Z,1010.01
2018-12-23T21:49:59.042Z,1010.05
2018-12-23T21:50:59.098Z,1010.12
2018-12-23T21:51:59.158Z,1010.22
2018-12-23T21:52:59.327Z,1010.33
2018-12-23T21:53:59.278Z,1010.40
2018-12-23T21:54:59.343Z,1010.42
2018-12-23T21:55:59.398Z,1010.53
2018-12-23T21:56:59.463Z,1010.62
2018-12-23T21:57:59.531Z,1010.58
2018-12-23T21:58:59.590Z,1010.67
2018-12-23T21:59:59.642Z,1010.77
2018-12-23T22:00:59.703Z,1010.84
2018-12-23T22:01:59.767Z,1011.00
2018-12-23T22:02:59.830Z,1011.11
2018-12-23T22:03:59.903Z,1011.14
2018-12-23T22:04:59.947Z,1011.19
2018-12-23T22:06:00.003Z,1011.18
2018-12-23T22:07:00.067Z,1011.19
2018-12-23T22:08:00.132Z,1011.21
2018-12-23T22:09:00.283Z,1011.32
2018-12-23T22:10:00.279Z,1011.31
2018-12-23T22:11:00.308Z,1011.33
2018-12-23T22:12:00.367Z,1011.38
2018-12-23T22:13:00.428Z,1011.48
2018-12-23T22:14:00.495Z,1011.46
2018-12-23T22:15:00.556Z,1011.45
2018-12-23T22:16:00.607Z,1011.49
2018-12-23T22:17:00.672Z,1011.50
2018-12-23T22:18:00.732Z,1011.51
2018-12-23T22:19:00.799Z,1011.52
2018-12-23T22:20:00.856Z,1011.56
2018-12-23T22:21:00.912Z,1011.57
2018-12-23T22:22:00.971Z,1011.59
2018-12-23T22:23:01.032Z,1011.55
2018-12-23T22:24:01.112Z,1011.57
2018-12-23T22:25:01.159Z,1011.58
2018-12-23T22:26:01.212Z,1011.55
2018-12-23T22:27:01.272Z,1011.53
2018-12-23T22:28:01.332Z,1011.55
2018-12-23T22:29:01.400Z,1011.54
2018-12-23T22:30:01.460Z,1011.61
2018-12-23T22:31:01.516Z,1011.63
2018-12-23T22:32:01.577Z,1011.66
2018-12-23T22:33:01.636Z,1011.70
2018-12-23T22:34:01.704Z,1011.74
2018-12-23T22:35:01.766Z,1011.80
2018-12-23T22:36:01.817Z,1011.80
2018-12-23T22:37:01.881Z,1011.85
2018-12-23T22:38:01.936Z,1011.86
2018-12-23T22:39:02.005Z,1011.80
2018-12-23T22:40:02.065Z,1011.82
2018-12-23T22:41:02.117Z,1011.86
2018-12-23T22:42:02.177Z,1011.94
2018-12-23T22:43:02.237Z,1012.07
2018-12-23T22:44:02.405Z,1012.13
2018-12-23T22:45:02.357Z,1012.08
2018-12-23T22:46:02.424Z,1012.16
2018-12-23T22:47:02.481Z,1012.25
2018-12-23T22:48:02.547Z,1012.34
2018-12-23T22:49:02.610Z,1012.44
2018-12-23T22:50:02.669Z,1012.51
2018-12-23T22:51:02.721Z,1012.47
2018-12-23T22:52:02.782Z,1012.41
2018-12-23T22:53:02.842Z,1012.31
2018-12-23T22:54:02.911Z,1012.29
2018-12-23T22:55:02.970Z,1012.24
2018-12-23T22:56:03.022Z,1012.30
2018-12-23T22:57:03.081Z,1012.36
2018-12-23T22:58:03.186Z,1012.41
2018-12-23T22:59:03.210Z,1012.46
2018-12-23T23:00:03.279Z,1012.47
2018-12-23T23:01:03.328Z,1012.50
2018-12-23T23:02:03.389Z,1012.51
2018-12-23T23:03:08.917Z,1012.51
2018-12-23T23:04:03.506Z,1012.52
2018-12-23T23:05:03.575Z,1012.53
2018-12-23T23:06:03.635Z,1012.45
2018-12-23T23:07:03.686Z,1012.47
2018-12-23T23:08:03.746Z,1012.56
2018-12-23T23:09:03.806Z,1012.74
2018-12-23T23:10:03.883Z,1012.82
2018-12-23T23:11:03.938Z,1012.84
2018-12-23T23:12:03.986Z,1012.70
2018-12-23T23:13:04.051Z,1012.58
2018-12-23T23:14:04.114Z,1012.71
2018-12-23T23:15:04.267Z,1012.83
2018-12-23T23:16:04.230Z,1012.92
2018-12-23T23:17:04.296Z,1012.96
2018-12-23T23:18:04.350Z,1013.04
2018-12-23T23:19:04.418Z,1013.17
2018-12-23T23:20:04.483Z,1013.07
2018-12-23T23:21:04.539Z,1013.06
2018-12-23T23:22:04.594Z,1012.97
2018-12-23T23:23:04.655Z,1013.03
2018-12-23T23:24:04.715Z,1013.06
2018-12-23T23:25:04.783Z,1013.10
2018-12-23T23:26:04.843Z,1013.09
2018-12-23T23:27:04.894Z,1013.16
2018-12-23T23:28:04.955Z,1013.14
2018-12-23T23:29:05.015Z,1013.20
2018-12-23T23:30:05.094Z,1013.23
2018-12-23T23:31:05.144Z,1013.31
2018-12-23T23:32:05.199Z,1013.31
2018-12-23T23:33:05.263Z,1013.26
2018-12-23T23:34:05.319Z,1013.33
2018-12-23T23:35:05.390Z,1013.29
2018-12-23T23:36:05.447Z,1013.31
2018-12-23T23:37:05.499Z,1013.36
2018-12-23T23:38:05.564Z,1013.44
2018-12-23T23:39:05.623Z,1013.45
2018-12-23T23:40:05.687Z,1013.46
2018-12-23T23:41:05.759Z,1013.41
2018-12-23T23:42:05.809Z,1013.49
2018-12-23T23:43:05.864Z,1013.47
2018-12-23T23:44:05.927Z,1013.48
2018-12-23T23:45:05.995Z,1013.50
2018-12-23T23:46:06.056Z,1013.51
2018-12-23T23:47:06.108Z,1013.54
2018-12-23T23:48:06.168Z,1013.55
2018-12-23T23:49:06.228Z,1013.55
2018-12-23T23:50:06.289Z,1013.48
2018-12-23T23:51:06.457Z,1013.42
2018-12-23T23:52:06.410Z,1013.47
2018-12-23T23:53:06.464Z,1013.56
2018-12-23T23:54:06.532Z,1013.65
2018-12-23T23:55:06.593Z,1013.66
2018-12-23T23:56:06.660Z,1013.76
2018-12-23T23:57:06.720Z,1013.82
2018-12-23T23:58:06.776Z,1013.83
2018-12-23T23:59:06.832Z,1013.84
